Time;durP1;ratioP1;P1;durP2;ratioP2;P2;SDS_P1;SDS_P2;PMS_P1;PMS_P2;Temp;Humidity;BMP_temperature;BMP_pressure;BME280_temperature;BME280_humidity;BME280_pressure;Samples;Min_cycle;Max_cycle;Signal;HPM_P1;HPM_P2
2023/02/13 00:00:44;;;;;;;;;;;4.30;58.20;;;;;;4994681;28;19921;-80
2023/02/13 00:03:10;;;;;;;;;;;4.20;58.40;;;;;;4997880;28;19936;-80
2023/02/13 00:05:36;;;;;;;;;;;4.20;58.60;;;;;;4995106;28;20269;-83
2023/02/13 00:08:01;;;;;;;;;;;4.10;58.60;;;;;;4993841;28;20008;-81
2023/02/13 00:10:27;;;;;;;;;;;4.10;58.60;;;;;;4991602;28;20277;-80
2023/02/13 00:12:52;;;;;;;;;;;4.10;58.70;;;;;;4997856;28;20409;-80
2023/02/13 00:15:18;;;;;;;;;;;4.00;58.60;;;;;;4994394;28;19921;-83
2023/02/13 00:17:43;;;;;;;;;;;4.00;58.60;;;;;;4996899;28;20690;-80
2023/02/13 00:20:09;;;;;;;;;;;3.90;58.80;;;;;;4996640;28;20027;-80
2023/02/13 00:22:35;;;;;;;;;;;3.90;59.20;;;;;;4991433;28;19909;-80
2023/02/13 00:25:02;;;;;;;;;;;3.90;59.10;;;;;;4994106;28;19920;-81
2023/02/13 00:27:27;;;;;;;;;;;3.90;58.90;;;;;;4999027;28;19921;-80
2023/02/13 00:29:53;;;;;;;;;;;3.90;59.00;;;;;;4999351;28;20171;-80
2023/02/13 00:32:19;;;;;;;;;;;3.80;59.10;;;;;;4999882;28;19921;-80
2023/02/13 00:34:44;;;;;;;;;;;3.80;59.20;;;;;;4994680;28;19917;-81
2023/02/13 00:37:10;;;;;;;;;;;3.80;59.20;;;;;;4995053;28;19913;-81
2023/02/13 00:39:36;;;;;;;;;;;3.80;59.00;;;;;;4993006;28;20012;-83
2023/02/13 00:42:01;;;;;;;;;;;3.80;59.20;;;;;;4999035;28;19913;-83
2023/02/13 00:44:27;;;;;;;;;;;3.70;59.20;;;;;;4994763;28;20427;-82
2023/02/13 00:46:52;;;;;;;;;;;3.70;59.30;;;;;;4993559;28;19924;-80
2023/02/13 00:49:18;;;;;;;;;;;3.60;59.60;;;;;;4997271;28;20012;-81
2023/02/13 00:51:43;;;;;;;;;;;3.50;59.70;;;;;;4999175;28;19914;-82
2023/02/13 00:54:09;;;;;;;;;;;3.50;59.70;;;;;;4982338;28;19961;-79
2023/02/13 00:56:35;;;;;;;;;;;3.50;59.80;;;;;;4998891;28;20669;-82
2023/02/13 00:59:00;;;;;;;;;;;3.40;60.10;;;;;;4979753;28;20406;-80
2023/02/13 01:01:26;;;;;;;;;;;3.40;60.10;;;;;;5003156;28;20704;-79
2023/02/13 01:03:51;;;;;;;;;;;3.40;60.20;;;;;;4999143;28;19924;-81
2023/02/13 01:06:17;;;;;;;;;;;3.30;60.20;;;;;;4999894;28;19914;-79
2023/02/13 01:08:42;;;;;;;;;;;3.30;60.40;;;;;;4997394;28;19917;-83
2023/02/13 01:11:08;;;;;;;;;;;3.30;60.50;;;;;;4999810;28;20008;-79
2023/02/13 01:13:34;;;;;;;;;;;3.30;60.50;;;;;;4976630;28;20015;-79
2023/02/13 01:16:00;;;;;;;;;;;3.20;60.60;;;;;;4994499;28;19917;-81
2023/02/13 01:18:25;;;;;;;;;;;3.20;60.50;;;;;;5001712;28;19913;-80
2023/02/13 01:20:58;;;;;;;;;;;3.20;60.70;;;;;;4994071;28;20428;-81
2023/02/13 01:23:24;;;;;;;;;;;3.10;60.90;;;;;;4998929;28;20407;-79
2023/02/13 01:25:50;;;;;;;;;;;3.10;60.80;;;;;;4993410;28;19913;-79
2023/02/13 01:28:16;;;;;;;;;;;3.10;61.00;;;;;;4988898;28;20443;-81
2023/02/13 01:30:41;;;;;;;;;;;3.00;61.30;;;;;;4992698;28;19914;-81
2023/02/13 01:33:09;;;;;;;;;;;3.00;61.30;;;;;;5002142;28;19967;-81
2023/02/13 01:35:37;;;;;;;;;;;3.00;61.20;;;;;;5000184;28;19917;-79
2023/02/13 01:38:03;;;;;;;;;;;2.90;61.50;;;;;;4992543;28;19924;-80
2023/02/13 01:40:28;;;;;;;;;;;2.90;61.70;;;;;;4997165;28;19922;-80
2023/02/13 01:42:54;;;;;;;;;;;2.90;61.70;;;;;;4972044;28;20479;-80
2023/02/13 01:45:20;;;;;;;;;;;2.80;62.10;;;;;;4991470;28;19913;-84
2023/02/13 01:47:48;;;;;;;;;;;2.80;62.00;;;;;;4996738;28;19924;-82
2023/02/13 01:50:32;;;;;;;;;;;2.70;62.20;;;;;;4994561;28;19924;-81
2023/02/13 01:52:58;;;;;;;;;;;2.70;62.30;;;;;;4993059;28;19914;-80
2023/02/13 01:55:24;;;;;;;;;;;2.70;62.30;;;;;;4998343;28;19921;-79
2023/02/13 01:57:56;;;;;;;;;;;2.70;62.20;;;;;;5001886;28;19922;-80
2023/02/13 02:00:22;;;;;;;;;;;2.60;62.50;;;;;;5001128;28;19914;-80
2023/02/13 02:02:54;;;;;;;;;;;2.60;62.90;;;;;;5000060;28;19984;-79
2023/02/13 02:05:21;;;;;;;;;;;2.50;63.00;;;;;;4997830;28;20008;-81
2023/02/13 02:07:46;;;;;;;;;;;2.50;63.00;;;;;;4999566;28;19913;-79
2023/02/13 02:10:14;;;;;;;;;;;2.40;63.00;;;;;;4992098;28;19921;-81
2023/02/13 02:12:46;;;;;;;;;;;2.40;63.30;;;;;;4993962;28;20004;-79
2023/02/13 02:15:12;;;;;;;;;;;2.40;63.40;;;;;;4995543;28;19924;-82
2023/02/13 02:17:38;;;;;;;;;;;2.30;63.60;;;;;;4996334;28;19917;-81
2023/02/13 02:20:09;;;;;;;;;;;2.30;63.70;;;;;;4995187;28;19913;-80
2023/02/13 02:22:38;;;;;;;;;;;2.20;63.70;;;;;;4994788;28;19920;-80
2023/02/13 02:25:06;;;;;;;;;;;2.20;63.80;;;;;;4996588;28;19924;-79
2023/02/13 02:27:43;;;;;;;;;;;2.20;64.00;;;;;;4983035;28;19913;-83
2023/02/13 02:30:12;;;;;;;;;;;2.10;64.10;;;;;;4998916;28;19913;-82
2023/02/13 02:32:37;;;;;;;;;;;2.20;64.00;;;;;;4999204;28;19913;-79
2023/02/13 02:35:09;;;;;;;;;;;2.20;64.20;;;;;;4994772;28;20473;-82
2023/02/13 02:37:50;;;;;;;;;;;2.10;64.40;;;;;;4996655;28;20036;-79
2023/02/13 02:40:21;;;;;;;;;;;2.10;64.60;;;;;;4997087;28;19976;-79
2023/02/13 02:43:05;;;;;;;;;;;2.00;64.60;;;;;;4999366;28;19916;-78
2023/02/13 02:45:31;;;;;;;;;;;2.00;64.80;;;;;;4991510;28;19913;-80
2023/02/13 02:51:07;;;;;;;;;;;1.90;64.80;;;;;;4993144;28;19921;-80
2023/02/13 02:53:33;;;;;;;;;;;1.90;65.00;;;;;;4996157;28;19917;-80
2023/02/13 02:56:06;;;;;;;;;;;1.90;65.10;;;;;;4997449;28;20349;-79
2023/02/13 03:06:58;;;;;;;;;;;1.80;65.60;;;;;;4996538;28;20651;-77
2023/02/13 03:15:00;;;;;;;;;;;1.80;65.80;;;;;;4990857;28;19943;-81
2023/02/13 03:23:12;;;;;;;;;;;1.80;65.80;;;;;;4986911;28;19924;-79
2023/02/13 03:25:38;;;;;;;;;;;1.70;65.90;;;;;;4975001;28;19913;-79
2023/02/13 03:31:01;;;;;;;;;;;1.80;65.80;;;;;;4995115;28;19936;-80
2023/02/13 03:33:33;;;;;;;;;;;1.70;65.80;;;;;;4989337;28;19913;-80
2023/02/13 03:39:03;;;;;;;;;;;1.70;66.00;;;;;;4990595;28;20397;-79
2023/02/13 03:41:32;;;;;;;;;;;1.80;66.10;;;;;;4992234;28;20202;-78
2023/02/13 03:44:00;;;;;;;;;;;1.80;65.90;;;;;;4989131;28;19972;-79
2023/02/13 03:46:27;;;;;;;;;;;1.90;65.90;;;;;;4973895;28;19976;-78
2023/02/13 03:51:41;;;;;;;;;;;1.80;66.10;;;;;;4994873;28;19921;-79
2023/02/13 03:54:15;;;;;;;;;;;1.70;66.40;;;;;;4990724;28;19927;-79
2023/02/13 03:59:28;;;;;;;;;;;1.70;67.10;;;;;;4990675;28;19921;-80
2023/02/13 04:02:14;;;;;;;;;;;1.60;67.30;;;;;;4993647;28;19975;-78
2023/02/13 04:04:52;;;;;;;;;;;1.60;67.60;;;;;;4998759;28;20555;-79
2023/02/13 04:07:29;;;;;;;;;;;1.50;67.80;;;;;;4997229;28;20419;-79
2023/02/13 04:09:57;;;;;;;;;;;1.50;68.80;;;;;;4998331;28;19929;-79
2023/02/13 04:12:26;;;;;;;;;;;1.50;68.00;;;;;;4995785;28;19917;-81
2023/02/13 04:15:03;;;;;;;;;;;1.40;68.30;;;;;;4992650;28;19921;-80
2023/02/13 04:17:40;;;;;;;;;;;1.40;68.40;;;;;;4995079;28;19914;-80
2023/02/13 04:20:06;;;;;;;;;;;1.50;68.50;;;;;;4991892;28;19948;-80
2023/02/13 04:22:32;;;;;;;;;;;1.40;68.70;;;;;;4993266;28;19913;-78
2023/02/13 04:24:58;;;;;;;;;;;1.40;68.80;;;;;;5000454;28;19953;-79
2023/02/13 04:27:25;;;;;;;;;;;1.30;69.00;;;;;;5002796;28;20011;-78
2023/02/13 04:29:50;;;;;;;;;;;1.30;69.00;;;;;;5001747;28;20096;-83
2023/02/13 04:32:16;;;;;;;;;;;1.40;69.10;;;;;;4993969;28;20444;-78
2023/02/13 04:34:42;;;;;;;;;;;1.40;68.80;;;;;;4999337;28;19926;-81
2023/02/13 04:37:08;;;;;;;;;;;1.40;68.80;;;;;;5001448;28;19913;-81
2023/02/13 04:39:33;;;;;;;;;;;1.30;68.90;;;;;;4996823;28;20053;-79
2023/02/13 04:41:59;;;;;;;;;;;1.40;68.80;;;;;;4994359;28;20000;-78
2023/02/13 04:44:24;;;;;;;;;;;1.40;68.90;;;;;;5000850;28;20036;-81
2023/02/13 04:46:50;;;;;;;;;;;1.40;68.90;;;;;;4999360;28;19972;-80
2023/02/13 04:49:16;;;;;;;;;;;1.30;69.10;;;;;;4989063;28;19964;-82
2023/02/13 04:51:41;;;;;;;;;;;1.30;69.30;;;;;;4997010;28;19921;-79
2023/02/13 04:54:07;;;;;;;;;;;1.30;69.20;;;;;;4998620;28;19929;-79
2023/02/13 04:56:32;;;;;;;;;;;1.20;69.50;;;;;;4998822;28;20523;-81
2023/02/13 04:58:58;;;;;;;;;;;1.20;69.80;;;;;;4998373;28;20488;-82
2023/02/13 05:01:24;;;;;;;;;;;1.10;70.10;;;;;;4996185;28;19933;-79
2023/02/13 05:03:49;;;;;;;;;;;1.20;70.10;;;;;;4994524;28;19919;-79
2023/02/13 05:06:15;;;;;;;;;;;1.00;70.40;;;;;;4992954;28;20560;-83
2023/02/13 05:08:40;;;;;;;;;;;1.00;70.40;;;;;;4994678;28;20011;-79
2023/02/13 05:11:06;;;;;;;;;;;0.90;70.60;;;;;;4996755;28;20280;-81
2023/02/13 05:13:32;;;;;;;;;;;0.90;70.70;;;;;;4997460;28;20396;-79
2023/02/13 05:15:57;;;;;;;;;;;0.90;70.80;;;;;;4997780;28;19984;-81
2023/02/13 05:18:23;;;;;;;;;;;0.90;71.70;;;;;;4995948;28;19913;-80
2023/02/13 05:23:21;;;;;;;;;;;0.90;71.20;;;;;;4995516;28;19914;-77
2023/02/13 05:23:37;;;;;;;;;;;0.80;71.40;;;;;;5001517;28;19913;-79
2023/02/13 05:26:03;;;;;;;;;;;0.80;71.70;;;;;;4996373;28;19914;-82
2023/02/13 05:31:13;;;;;;;;;;;0.70;71.70;;;;;;5001311;28;20008;-81
2023/02/13 05:33:38;;;;;;;;;;;0.80;71.80;;;;;;4998235;28;19917;-80
2023/02/13 05:36:04;;;;;;;;;;;0.70;72.00;;;;;;4992603;28;19956;-79
2023/02/13 05:38:30;;;;;;;;;;;0.60;72.20;;;;;;5003438;28;19913;-79
2023/02/13 05:40:57;;;;;;;;;;;0.60;72.20;;;;;;4992505;28;19914;-81
2023/02/13 05:43:23;;;;;;;;;;;0.60;72.30;;;;;;4988907;28;20361;-80
2023/02/13 05:45:48;;;;;;;;;;;0.60;72.20;;;;;;4995430;28;19921;-80
2023/02/13 05:48:14;;;;;;;;;;;0.80;71.80;;;;;;4999204;28;19928;-80
2023/02/13 05:50:39;;;;;;;;;;;0.80;71.70;;;;;;4993684;28;19960;-80
2023/02/13 05:53:05;;;;;;;;;;;0.70;72.00;;;;;;4994802;28;20660;-81
2023/02/13 05:55:30;;;;;;;;;;;0.60;72.40;;;;;;4977191;28;19984;-80
2023/02/13 05:57:56;;;;;;;;;;;0.50;72.70;;;;;;4997291;28;19937;-80
2023/02/13 06:00:22;;;;;;;;;;;0.60;72.90;;;;;;4991632;28;19964;-79
2023/02/13 06:02:48;;;;;;;;;;;0.60;73.10;;;;;;4997808;28;19921;-80
2023/02/13 06:05:14;;;;;;;;;;;0.60;73.10;;;;;;4999558;28;19945;-79
2023/02/13 06:07:39;;;;;;;;;;;0.50;73.40;;;;;;5002613;28;19913;-79
2023/02/13 06:10:05;;;;;;;;;;;0.50;73.70;;;;;;4979167;28;20711;-80
2023/02/13 06:12:30;;;;;;;;;;;0.40;73.70;;;;;;4976878;28;20413;-81
2023/02/13 06:14:56;;;;;;;;;;;0.40;74.00;;;;;;4999643;28;20356;-80
2023/02/13 06:17:22;;;;;;;;;;;0.40;74.10;;;;;;4992929;28;19953;-81
2023/02/13 06:19:47;;;;;;;;;;;0.30;74.30;;;;;;5002157;28;19917;-80
2023/02/13 06:22:13;;;;;;;;;;;0.50;74.20;;;;;;5002474;28;19924;-80
2023/02/13 06:24:38;;;;;;;;;;;0.40;74.40;;;;;;4996492;28;19917;-80
2023/02/13 06:27:04;;;;;;;;;;;0.30;74.70;;;;;;5002469;28;20039;-79
2023/02/13 06:29:31;;;;;;;;;;;0.20;74.80;;;;;;4998354;28;20012;-80
2023/02/13 06:31:57;;;;;;;;;;;0.20;75.00;;;;;;4998850;28;19913;-81
2023/02/13 06:34:23;;;;;;;;;;;0.20;75.10;;;;;;4984534;28;19955;-79
2023/02/13 06:36:48;;;;;;;;;;;0.20;75.10;;;;;;5001990;28;20404;-79
2023/02/13 06:39:14;;;;;;;;;;;0.20;75.20;;;;;;4995654;28;19933;-78
2023/02/13 06:41:40;;;;;;;;;;;0.20;75.30;;;;;;5003319;28;20435;-78
2023/02/13 06:44:06;;;;;;;;;;;0.20;75.40;;;;;;4992590;28;20008;-79
2023/02/13 06:46:32;;;;;;;;;;;0.10;75.60;;;;;;4999231;28;19993;-78
2023/02/13 06:48:58;;;;;;;;;;;0.10;75.80;;;;;;4998351;28;19910;-79
2023/02/13 06:51:23;;;;;;;;;;;0.20;75.70;;;;;;4991378;28;19913;-78
2023/02/13 06:53:49;;;;;;;;;;;0.10;75.80;;;;;;4994542;28;19922;-78
2023/02/13 06:56:15;;;;;;;;;;;0.20;75.70;;;;;;5000730;28;19910;-78
2023/02/13 06:58:40;;;;;;;;;;;0.20;75.90;;;;;;4988949;28;19913;-78
2023/02/13 07:01:06;;;;;;;;;;;0.10;76.00;;;;;;4994182;28;19960;-78
2023/02/13 07:03:31;;;;;;;;;;;0.20;75.80;;;;;;4997709;28;19921;-77
2023/02/13 07:05:57;;;;;;;;;;;0.20;75.90;;;;;;4990926;28;19920;-78
2023/02/13 07:08:22;;;;;;;;;;;0.30;75.60;;;;;;4989992;28;20281;-79
2023/02/13 07:10:48;;;;;;;;;;;0.30;75.30;;;;;;4987817;28;19917;-78
2023/02/13 07:13:14;;;;;;;;;;;0.40;75.50;;;;;;4984456;28;19913;-78
2023/02/13 07:15:39;;;;;;;;;;;1.20;73.10;;;;;;4975311;28;19928;-79
2023/02/13 07:18:05;;;;;;;;;;;1.60;71.50;;;;;;4993034;28;19949;-78
2023/02/13 07:20:31;;;;;;;;;;;1.40;71.60;;;;;;4995667;28;19913;-79
2023/02/13 07:22:58;;;;;;;;;;;1.90;70.50;;;;;;5002169;28;20050;-79
2023/02/13 07:25:23;;;;;;;;;;;2.30;68.90;;;;;;4999621;28;19917;-79
2023/02/13 07:27:49;;;;;;;;;;;2.70;68.10;;;;;;5003365;28;19909;-78
2023/02/13 07:30:14;;;;;;;;;;;2.80;67.60;;;;;;4999144;28;19953;-79
2023/02/13 07:32:40;;;;;;;;;;;3.00;66.60;;;;;;4998565;28;19913;-78
2023/02/13 07:35:06;;;;;;;;;;;3.30;65.80;;;;;;4999563;28;19917;-79
2023/02/13 07:37:32;;;;;;;;;;;3.40;65.50;;;;;;4999641;28;19917;-79
2023/02/13 07:39:57;;;;;;;;;;;3.60;65.00;;;;;;4998031;28;20619;-78
2023/02/13 07:42:23;;;;;;;;;;;3.60;65.10;;;;;;4997191;28;19917;-79
2023/02/13 07:44:48;;;;;;;;;;;3.90;64.40;;;;;;4998256;28;19921;-79
2023/02/13 07:47:14;;;;;;;;;;;3.80;64.00;;;;;;4999414;28;19918;-79
2023/02/13 07:49:40;;;;;;;;;;;3.90;64.70;;;;;;4998720;28;19920;-80
2023/02/13 07:52:06;;;;;;;;;;;4.10;63.60;;;;;;4999384;28;19909;-80
2023/02/13 07:54:31;;;;;;;;;;;4.20;63.50;;;;;;5001739;28;19917;-79
2023/02/13 07:56:57;;;;;;;;;;;4.20;63.20;;;;;;4999742;28;19964;-80
2023/02/13 07:59:23;;;;;;;;;;;4.30;62.90;;;;;;4999716;28;19944;-80
2023/02/13 08:01:48;;;;;;;;;;;4.30;63.30;;;;;;4998963;28;20320;-78
2023/02/13 08:04:14;;;;;;;;;;;4.50;62.80;;;;;;5000020;28;19937;-78
2023/02/13 08:06:40;;;;;;;;;;;4.80;62.60;;;;;;5000155;28;20384;-79
2023/02/13 08:11:53;;;;;;;;;;;5.30;61.60;;;;;;4993714;28;19917;-79
2023/02/13 08:14:20;;;;;;;;;;;5.30;61.30;;;;;;4999001;28;19961;-79
2023/02/13 08:16:46;;;;;;;;;;;5.70;61.20;;;;;;4999352;28;19910;-79
2023/02/13 08:19:11;;;;;;;;;;;5.60;61.30;;;;;;4999623;28;19909;-79
2023/02/13 08:21:37;;;;;;;;;;;5.70;60.60;;;;;;4996054;28;19971;-79
2023/02/13 08:24:03;;;;;;;;;;;5.90;59.90;;;;;;4999667;28;19913;-79
2023/02/13 08:26:32;;;;;;;;;;;5.90;60.00;;;;;;4999796;28;20285;-79
2023/02/13 08:28:57;;;;;;;;;;;6.00;59.30;;;;;;4997944;28;19995;-79
2023/02/13 08:31:23;;;;;;;;;;;6.00;59.90;;;;;;4997565;28;20452;-79
2023/02/13 08:33:49;;;;;;;;;;;6.00;60.00;;;;;;4999463;28;19929;-79
2023/02/13 08:36:15;;;;;;;;;;;6.20;59.60;;;;;;5000963;28;19917;-78
2023/02/13 08:38:40;;;;;;;;;;;6.20;58.90;;;;;;4995639;28;19913;-78
2023/02/13 08:41:06;;;;;;;;;;;6.20;59.20;;;;;;4995399;28;19998;-79
2023/02/13 08:43:31;;;;;;;;;;;6.30;59.70;;;;;;4987375;28;20397;-78
2023/02/13 08:45:58;;;;;;;;;;;6.50;58.70;;;;;;4984026;28;19913;-78
2023/02/13 08:48:24;;;;;;;;;;;6.40;58.00;;;;;;4990090;28;19913;-78
2023/02/13 08:50:49;;;;;;;;;;;6.40;57.90;;;;;;4994266;28;20326;-78
2023/02/13 08:53:15;;;;;;;;;;;6.60;57.80;;;;;;4993401;28;19909;-78
2023/02/13 08:55:41;;;;;;;;;;;6.70;58.30;;;;;;5000543;28;20300;-79
2023/02/13 08:58:06;;;;;;;;;;;6.80;58.00;;;;;;4994909;28;19910;-78
2023/02/13 09:00:32;;;;;;;;;;;7.00;58.60;;;;;;4992884;28;19956;-78
2023/02/13 09:03:01;;;;;;;;;;;7.10;58.30;;;;;;4996366;28;19914;-78
2023/02/13 09:05:27;;;;;;;;;;;7.10;57.70;;;;;;4999149;28;19913;-79
2023/02/13 09:07:52;;;;;;;;;;;7.20;56.80;;;;;;4992954;28;20626;-78
2023/02/13 09:10:18;;;;;;;;;;;7.30;57.20;;;;;;4997480;28;20337;-79
2023/02/13 09:12:44;;;;;;;;;;;7.50;58.00;;;;;;5000561;28;19909;-78
2023/02/13 09:15:09;;;;;;;;;;;7.70;56.30;;;;;;4994459;28;19931;-78
2023/02/13 09:17:35;;;;;;;;;;;7.70;55.90;;;;;;4991345;28;20023;-79
2023/02/13 09:20:00;;;;;;;;;;;7.60;57.50;;;;;;4992607;28;19983;-78
2023/02/13 09:22:27;;;;;;;;;;;7.90;56.40;;;;;;4992548;28;19910;-79
2023/02/13 09:24:53;;;;;;;;;;;8.10;56.70;;;;;;4993414;28;19952;-79
2023/02/13 09:27:18;;;;;;;;;;;8.20;54.90;;;;;;4993695;28;20005;-78
2023/02/13 09:29:44;;;;;;;;;;;8.30;54.70;;;;;;4992829;28;19910;-78
2023/02/13 09:32:09;;;;;;;;;;;8.50;54.30;;;;;;5001765;28;19949;-79
2023/02/13 09:34:35;;;;;;;;;;;8.70;55.00;;;;;;4991634;28;19925;-78
2023/02/13 09:37:01;;;;;;;;;;;8.80;54.40;;;;;;4992751;28;19949;-79
2023/02/13 09:39:26;;;;;;;;;;;9.10;54.90;;;;;;4993295;28;19910;-79
2023/02/13 09:41:52;;;;;;;;;;;9.20;53.70;;;;;;4993866;28;19916;-79
2023/02/13 09:44:33;;;;;;;;;;;8.90;54.10;;;;;;4992845;28;19913;-78
2023/02/13 09:47:17;;;;;;;;;;;8.80;53.00;;;;;;4986881;28;19913;-79
2023/02/13 09:49:45;;;;;;;;;;;8.70;53.30;;;;;;4988147;28;20016;-79
2023/02/13 09:52:10;;;;;;;;;;;8.80;52.80;;;;;;4999513;28;19915;-79
2023/02/13 09:54:36;;;;;;;;;;;8.80;52.30;;;;;;4998310;28;19921;-79
2023/02/13 09:57:06;;;;;;;;;;;9.00;54.20;;;;;;4995340;28;19913;-78
2023/02/13 09:59:41;;;;;;;;;;;9.00;54.00;;;;;;4994112;28;19920;-79
2023/02/13 10:02:25;;;;;;;;;;;8.90;52.40;;;;;;4992696;28;19922;-78
2023/02/13 10:04:57;;;;;;;;;;;9.10;51.80;;;;;;4988612;28;20488;-79
2023/02/13 10:07:43;;;;;;;;;;;9.30;53.90;;;;;;4995366;28;20808;-79
2023/02/13 10:10:20;;;;;;;;;;;9.20;52.70;;;;;;5000517;28;19916;-78
2023/02/13 10:12:52;;;;;;;;;;;9.40;52.40;;;;;;5002852;28;19909;-79
2023/02/13 10:15:26;;;;;;;;;;;9.60;53.90;;;;;;5002774;28;19921;-78
2023/02/13 10:18:03;;;;;;;;;;;9.30;51.90;;;;;;5001578;28;19932;-79
2023/02/13 10:20:35;;;;;;;;;;;9.40;52.20;;;;;;4984107;28;19909;-79
2023/02/13 10:23:19;;;;;;;;;;;9.50;52.10;;;;;;5002242;28;19916;-80
2023/02/13 10:25:48;;;;;;;;;;;9.50;50.60;;;;;;5002371;28;20008;-79
2023/02/13 10:28:16;;;;;;;;;;;9.80;51.30;;;;;;5000711;28;19909;-79
2023/02/13 10:30:49;;;;;;;;;;;9.80;50.50;;;;;;5002494;28;19967;-79
2023/02/13 10:33:20;;;;;;;;;;;9.80;50.10;;;;;;4997858;28;19929;-79
2023/02/13 10:35:59;;;;;;;;;;;9.80;48.50;;;;;;4998452;28;19917;-79
2023/02/13 10:38:27;;;;;;;;;;;9.90;49.10;;;;;;4997067;28;20031;-78
2023/02/13 10:40:58;;;;;;;;;;;10.10;50.70;;;;;;5000197;28;19916;-80
2023/02/13 10:43:27;;;;;;;;;;;10.30;51.70;;;;;;4997421;28;19917;-79
2023/02/13 10:45:59;;;;;;;;;;;10.20;50.80;;;;;;4987236;28;20000;-79
2023/02/13 10:48:24;;;;;;;;;;;10.20;49.00;;;;;;4988071;28;20480;-79
2023/02/13 10:50:58;;;;;;;;;;;10.20;48.80;;;;;;4992663;28;19913;-79
2023/02/13 10:53:30;;;;;;;;;;;10.30;49.60;;;;;;4993926;28;19952;-79
2023/02/13 10:56:07;;;;;;;;;;;10.60;51.30;;;;;;4995161;28;20043;-79
2023/02/13 10:58:51;;;;;;;;;;;10.60;51.40;;;;;;4999060;28;19983;-79
2023/02/13 11:01:20;;;;;;;;;;;10.70;50.50;;;;;;4998579;28;20004;-79
2023/02/13 11:03:47;;;;;;;;;;;10.80;48.70;;;;;;4999296;28;20461;-79
2023/02/13 11:06:14;;;;;;;;;;;10.80;47.90;;;;;;4991305;28;19913;-79
2023/02/13 11:08:44;;;;;;;;;;;10.90;48.00;;;;;;4989289;28;19910;-79
2023/02/13 11:11:32;;;;;;;;;;;10.80;47.50;;;;;;5002737;28;19960;-78
2023/02/13 11:14:06;;;;;;;;;;;10.90;47.20;;;;;;4995199;28;19921;-79
2023/02/13 11:16:39;;;;;;;;;;;10.80;48.10;;;;;;4983175;28;19948;-80
2023/02/13 11:19:05;;;;;;;;;;;11.10;51.40;;;;;;4994503;28;19913;-79
2023/02/13 11:21:34;;;;;;;;;;;10.90;47.00;;;;;;4998746;28;19916;-79
2023/02/13 11:23:59;;;;;;;;;;;11.00;46.80;;;;;;4966456;28;20469;-78
2023/02/13 11:26:33;;;;;;;;;;;11.30;50.40;;;;;;5000171;28;19918;-78
2023/02/13 11:29:00;;;;;;;;;;;11.50;48.10;;;;;;4997677;28;19914;-80
2023/02/13 11:31:30;;;;;;;;;;;11.40;46.70;;;;;;4977609;28;19933;-79
2023/02/13 11:33:56;;;;;;;;;;;11.30;46.10;;;;;;4994485;28;19935;-79
2023/02/13 11:36:32;;;;;;;;;;;11.60;46.70;;;;;;4995362;28;19913;-78
2023/02/13 11:39:03;;;;;;;;;;;11.80;45.40;;;;;;5001261;28;19915;-79
2023/02/13 11:41:30;;;;;;;;;;;11.50;47.00;;;;;;5000114;28;19956;-79
2023/02/13 11:44:00;;;;;;;;;;;11.30;46.60;;;;;;4999403;28;19913;-78
2023/02/13 11:46:45;;;;;;;;;;;11.60;47.50;;;;;;4997989;28;19920;-78
2023/02/13 11:49:15;;;;;;;;;;;11.40;49.70;;;;;;4997333;28;19909;-79
2023/02/13 11:51:45;;;;;;;;;;;11.60;54.50;;;;;;4997465;28;19913;-79
2023/02/13 11:54:23;;;;;;;;;;;11.60;52.10;;;;;;4997239;28;19917;-79
2023/02/13 11:56:50;;;;;;;;;;;11.80;55.50;;;;;;4998527;28;19909;-79
2023/02/13 11:59:16;;;;;;;;;;;11.40;54.10;;;;;;4997691;28;19940;-79
2023/02/13 12:01:42;;;;;;;;;;;11.80;52.30;;;;;;4999247;28;19925;-78
2023/02/13 12:04:16;;;;;;;;;;;11.40;50.10;;;;;;4998719;28;20313;-79
2023/02/13 12:06:58;;;;;;;;;;;11.50;51.80;;;;;;4999663;28;19952;-79
2023/02/13 12:09:24;;;;;;;;;;;11.80;59.60;;;;;;4971195;28;20460;-80
2023/02/13 12:11:54;;;;;;;;;;;12.20;59.40;;;;;;4988089;28;19914;-79
2023/02/13 12:14:21;;;;;;;;;;;12.00;58.10;;;;;;4996762;28;19924;-79
2023/02/13 12:16:57;;;;;;;;;;;11.90;56.80;;;;;;4988397;28;19909;-79
2023/02/13 12:19:33;;;;;;;;;;;12.00;55.50;;;;;;4997790;28;19914;-79
2023/02/13 12:21:58;;;;;;;;;;;12.20;54.40;;;;;;4996770;28;19913;-79
2023/02/13 12:24:36;;;;;;;;;;;12.00;53.00;;;;;;4996576;28;19920;-79
2023/02/13 12:27:18;;;;;;;;;;;12.50;54.60;;;;;;4973918;28;19913;-79
2023/02/13 12:29:49;;;;;;;;;;;11.90;53.70;;;;;;4994856;28;19910;-79
2023/02/13 12:32:19;;;;;;;;;;;11.70;52.90;;;;;;4990873;28;19918;-79
2023/02/13 12:34:54;;;;;;;;;;;12.20;53.00;;;;;;4995294;28;19940;-79
2023/02/13 12:37:28;;;;;;;;;;;12.30;57.00;;;;;;4999707;28;19960;-79
2023/02/13 12:39:54;;;;;;;;;;;12.20;51.50;;;;;;4991313;28;19964;-79
2023/02/13 12:42:22;;;;;;;;;;;12.10;51.60;;;;;;4994381;28;19996;-80
2023/02/13 12:45:00;;;;;;;;;;;12.20;52.40;;;;;;4992443;28;19955;-79
2023/02/13 12:47:41;;;;;;;;;;;12.50;54.00;;;;;;5004366;28;19967;-78
2023/02/13 12:50:10;;;;;;;;;;;12.50;51.70;;;;;;4990571;28;19909;-79
2023/02/13 12:52:43;;;;;;;;;;;12.70;58.70;;;;;;4991278;28;19914;-78
2023/02/13 12:55:28;;;;;;;;;;;12.30;59.90;;;;;;4988482;28;19983;-79
2023/02/13 12:57:56;;;;;;;;;;;12.20;56.50;;;;;;4997348;28;20052;-78
2023/02/13 13:00:21;;;;;;;;;;;11.90;60.30;;;;;;5001914;28;19914;-79
2023/02/13 13:02:50;;;;;;;;;;;11.70;61.90;;;;;;4994692;28;19928;-79
2023/02/13 13:05:15;;;;;;;;;;;12.10;57.30;;;;;;5002200;28;19936;-79
2023/02/13 13:08:00;;;;;;;;;;;12.30;55.90;;;;;;4992129;28;19927;-79
2023/02/13 13:10:34;;;;;;;;;;;12.20;53.10;;;;;;4988153;28;19914;-79
2023/02/13 13:13:12;;;;;;;;;;;12.10;55.10;;;;;;4994459;28;19914;-79
2023/02/13 13:15:40;;;;;;;;;;;12.20;54.70;;;;;;4999812;28;20577;-79
2023/02/13 13:18:26;;;;;;;;;;;12.40;54.00;;;;;;5002282;28;19920;-79
2023/02/13 13:20:54;;;;;;;;;;;12.00;55.10;;;;;;4992568;28;19914;-79
2023/02/13 13:23:23;;;;;;;;;;;12.30;53.70;;;;;;4995990;28;19921;-79
2023/02/13 13:26:08;;;;;;;;;;;12.50;49.90;;;;;;4981536;28;20345;-79
2023/02/13 13:28:45;;;;;;;;;;;12.20;47.70;;;;;;4989179;28;20285;-80
2023/02/13 13:31:11;;;;;;;;;;;12.00;50.90;;;;;;4996464;28;20500;-79
2023/02/13 13:33:39;;;;;;;;;;;12.20;49.50;;;;;;4996705;28;20764;-79
2023/02/13 13:36:20;;;;;;;;;;;12.40;42.60;;;;;;5000403;28;19922;-79
2023/02/13 13:38:50;;;;;;;;;;;12.20;46.00;;;;;;5003176;28;19909;-79
2023/02/13 13:41:31;;;;;;;;;;;11.90;48.10;;;;;;5001241;28;20011;-80
2023/02/13 13:44:01;;;;;;;;;;;11.90;42.50;;;;;;4995138;28;20388;-78
2023/02/13 13:46:29;;;;;;;;;;;12.20;38.60;;;;;;4996990;28;19979;-79
2023/02/13 13:49:03;;;;;;;;;;;12.20;44.00;;;;;;4996284;28;19932;-79
2023/02/13 13:51:29;;;;;;;;;;;12.60;44.00;;;;;;4991173;28;19956;-79
2023/02/13 13:54:04;;;;;;;;;;;12.60;39.50;;;;;;4994606;28;19983;-79
2023/02/13 13:56:48;;;;;;;;;;;12.60;45.10;;;;;;4996886;28;19917;-79
2023/02/13 13:59:17;;;;;;;;;;;12.70;44.70;;;;;;4985837;28;19913;-79
2023/02/13 14:01:43;;;;;;;;;;;13.00;44.90;;;;;;4997361;28;19921;-79
2023/02/13 14:04:27;;;;;;;;;;;13.00;45.50;;;;;;5000964;28;19964;-79
2023/02/13 14:06:58;;;;;;;;;;;12.90;41.10;;;;;;4992707;28;20353;-79
2023/02/13 14:09:27;;;;;;;;;;;12.50;44.60;;;;;;4996331;28;19960;-79
2023/02/13 14:11:53;;;;;;;;;;;12.30;45.90;;;;;;4991979;28;19917;-78
2023/02/13 14:14:28;;;;;;;;;;;12.80;46.40;;;;;;5002845;28;19922;-78
2023/02/13 14:16:56;;;;;;;;;;;12.90;42.90;;;;;;4994637;28;19910;-79
2023/02/13 14:19:36;;;;;;;;;;;13.10;40.00;;;;;;4984583;28;19991;-78
2023/02/13 14:22:17;;;;;;;;;;;13.10;38.20;;;;;;4982217;28;19905;-79
2023/02/13 14:24:52;;;;;;;;;;;12.80;39.20;;;;;;4987286;28;19913;-78
2023/02/13 14:27:20;;;;;;;;;;;12.90;39.50;;;;;;4989289;28;20618;-79
2023/02/13 14:29:47;;;;;;;;;;;12.70;38.40;;;;;;4984677;28;19910;-79
2023/02/13 14:32:15;;;;;;;;;;;12.90;37.20;;;;;;4997690;28;19917;-78
2023/02/13 14:34:42;;;;;;;;;;;13.10;38.60;;;;;;4980649;28;19973;-78
2023/02/13 14:37:15;;;;;;;;;;;12.70;39.40;;;;;;5002483;28;20439;-79
2023/02/13 14:39:41;;;;;;;;;;;13.00;41.30;;;;;;4981489;28;20777;-78
2023/02/13 14:42:25;;;;;;;;;;;12.90;37.00;;;;;;4995911;28;19913;-79
2023/02/13 14:44:54;;;;;;;;;;;13.10;39.90;;;;;;4998455;28;19910;-79
2023/02/13 14:47:23;;;;;;;;;;;13.10;37.10;;;;;;4996010;28;19913;-79
2023/02/13 14:49:49;;;;;;;;;;;12.90;37.90;;;;;;5003130;28;19924;-79
2023/02/13 14:52:17;;;;;;;;;;;12.80;36.40;;;;;;4993023;28;19909;-79
2023/02/13 14:54:45;;;;;;;;;;;13.20;38.90;;;;;;4988941;28;19922;-79
2023/02/13 14:57:30;;;;;;;;;;;12.80;43.90;;;;;;5002003;28;19916;-78
2023/02/13 15:00:19;;;;;;;;;;;12.30;47.00;;;;;;4990146;28;19910;-78
2023/02/13 15:02:46;;;;;;;;;;;12.00;47.60;;;;;;4983563;28;19996;-80
2023/02/13 15:05:18;;;;;;;;;;;12.00;46.20;;;;;;4986275;28;19956;-79
2023/02/13 15:08:01;;;;;;;;;;;11.90;44.00;;;;;;4972131;28;19952;-79
2023/02/13 15:10:32;;;;;;;;;;;12.10;44.70;;;;;;4990803;28;19950;-79
2023/02/13 15:12:59;;;;;;;;;;;12.10;44.40;;;;;;4995360;28;20005;-79
2023/02/13 15:15:26;;;;;;;;;;;11.90;47.00;;;;;;4999534;28;19925;-79